createdAt,value
2023-02-07T00:01:27.395Z,90.58
2023-02-07T00:03:56.520Z,91.13
2023-02-07T00:06:33.395Z,90.91
2023-02-07T00:09:03.025Z,91.24
2023-02-07T00:11:29.962Z,91.31
2023-02-07T00:13:59.289Z,91.20
2023-02-07T00:16:26.704Z,91.05
2023-02-07T00:18:54.858Z,91.00
2023-02-07T00:21:24.663Z,91.05
2023-02-07T00:23:53.394Z,91.13
2023-02-07T00:26:23.089Z,90.45
2023-02-07T00:28:53.728Z,90.49
2023-02-07T00:31:25.245Z,90.90
2023-02-07T00:33:56.396Z,91.22
2023-02-07T00:36:25.737Z,91.00
2023-02-07T00:39:00.655Z,91.74
2023-02-07T00:41:28.617Z,91.67
2023-02-07T00:43:55.929Z,91.96
2023-02-07T00:46:24.487Z,91.78
2023-02-07T00:48:52.390Z,91.83
2023-02-07T00:51:19.958Z,92.16
2023-02-07T00:53:48.484Z,91.92
2023-02-07T00:56:15.624Z,92.00
2023-02-07T00:58:42.471Z,91.76
2023-02-07T01:01:09.684Z,92.02
2023-02-07T01:03:36.545Z,91.82
2023-02-07T01:06:03.893Z,91.93
2023-02-07T01:08:30.905Z,92.16
2023-02-07T01:11:01.673Z,92.79
2023-02-07T01:13:28.617Z,92.51
2023-02-07T01:15:55.531Z,92.10
2023-02-07T01:18:22.488Z,92.02
2023-02-07T01:20:49.407Z,92.11
2023-02-07T01:23:16.532Z,91.36
2023-02-07T01:25:44.834Z,91.57
2023-02-07T01:28:14.278Z,91.41
2023-02-07T01:30:44.319Z,91.33
2023-02-07T01:33:11.618Z,91.14
2023-02-07T01:35:39.541Z,91.67
2023-02-07T01:38:07.950Z,91.57
2023-02-07T01:40:38.146Z,92.48
2023-02-07T01:43:06.900Z,91.92
2023-02-07T01:45:40.794Z,90.94
2023-02-07T01:48:19.296Z,90.31
2023-02-07T01:50:49.892Z,90.14
2023-02-07T01:53:22.350Z,90.66
2023-02-07T01:55:52.513Z,90.39
2023-02-07T01:58:19.774Z,89.69
2023-02-07T02:00:48.033Z,88.88
2023-02-07T02:03:14.993Z,88.80
2023-02-07T02:05:44.283Z,88.89
2023-02-07T02:08:11.404Z,89.48
2023-02-07T02:11:02.873Z,89.69
2023-02-07T02:13:57.872Z,89.10
2023-02-07T02:16:48.678Z,89.41
2023-02-07T02:19:56.651Z,90.23
2023-02-07T02:22:47.983Z,89.77
2023-02-07T02:26:03.713Z,90.37
2023-02-07T02:29:04.386Z,90.66
2023-02-07T02:32:13.094Z,90.67
2023-02-07T02:35:34.918Z,90.74
2023-02-07T02:38:36.698Z,90.83
2023-02-07T02:41:08.584Z,90.62
2023-02-07T02:43:40.214Z,92.30
2023-02-07T02:46:25.492Z,92.27
2023-02-07T02:48:54.932Z,92.15
2023-02-07T02:51:21.996Z,91.69
2023-02-07T02:53:57.530Z,92.24
2023-02-07T02:56:58.673Z,92.20
2023-02-07T02:59:50.472Z,92.51
2023-02-07T03:02:40.755Z,91.59
2023-02-07T03:05:41.041Z,92.42
2023-02-07T03:08:33.339Z,92.18
2023-02-07T03:11:18.770Z,92.31
2023-02-07T03:14:09.707Z,91.92
2023-02-07T03:16:59.253Z,92.31
2023-02-07T03:19:39.134Z,91.89
2023-02-07T03:22:15.106Z,91.80
2023-02-07T03:24:55.472Z,90.79
2023-02-07T03:27:27.607Z,90.37
2023-02-07T03:29:59.131Z,90.57
2023-02-07T03:32:37.248Z,91.55
2023-02-07T03:35:20.608Z,90.96
2023-02-07T03:37:57.504Z,91.22
2023-02-07T03:40:32.731Z,91.50
2023-02-07T03:43:10.729Z,91.90
2023-02-07T03:45:38.250Z,92.37
2023-02-07T03:48:05.420Z,92.04
2023-02-07T03:50:32.949Z,91.75
2023-02-07T03:52:59.928Z,92.28
2023-02-07T03:55:27.692Z,92.37
2023-02-07T03:57:54.644Z,92.99
2023-02-07T04:00:21.697Z,92.93
2023-02-07T04:02:48.573Z,92.28
2023-02-07T04:05:15.668Z,92.02
2023-02-07T04:07:42.604Z,92.39
2023-02-07T04:10:11.155Z,92.42
2023-02-07T04:12:38.249Z,92.69
2023-02-07T04:15:06.753Z,91.25
2023-02-07T04:17:34.382Z,91.54
2023-02-07T04:20:01.764Z,92.01
2023-02-07T04:22:30.140Z,92.34
2023-02-07T04:24:57.457Z,92.04
2023-02-07T04:27:24.769Z,92.69
2023-02-07T04:29:52.336Z,91.21
2023-02-07T04:32:19.319Z,91.97
2023-02-07T04:34:46.434Z,91.95
2023-02-07T04:37:13.992Z,92.28
2023-02-07T04:39:40.876Z,91.26
2023-02-07T04:42:07.816Z,91.95
2023-02-07T04:44:34.910Z,92.05
2023-02-07T04:47:01.839Z,91.56
2023-02-07T04:49:28.814Z,92.29
2023-02-07T04:51:55.754Z,91.79
2023-02-07T04:54:22.625Z,91.69
2023-02-07T04:56:49.556Z,91.57
2023-02-07T04:59:16.494Z,92.43
2023-02-07T05:01:43.351Z,92.75
2023-02-07T05:04:10.376Z,92.27
2023-02-07T05:06:37.281Z,92.65
2023-02-07T05:09:04.230Z,92.45
2023-02-07T05:11:31.099Z,92.42
2023-02-07T05:13:57.978Z,92.29
2023-02-07T05:16:24.901Z,91.75
2023-02-07T05:18:51.816Z,92.11
2023-02-07T05:21:18.896Z,92.16
2023-02-07T05:23:46.613Z,92.53
2023-02-07T05:26:14.464Z,92.04
2023-02-07T05:28:41.367Z,92.30
2023-02-07T05:31:08.439Z,92.82
2023-02-07T05:33:35.368Z,92.37
2023-02-07T05:36:05.204Z,91.58
2023-02-07T05:38:32.448Z,92.08
2023-02-07T05:40:59.831Z,91.87
2023-02-07T05:43:26.811Z,92.30
2023-02-07T05:45:53.701Z,91.99
2023-02-07T05:48:20.666Z,91.58
2023-02-07T05:50:47.968Z,91.46
2023-02-07T05:53:15.259Z,91.83
2023-02-07T05:55:42.115Z,92.06
2023-02-07T05:58:09.075Z,90.97
2023-02-07T06:00:36.570Z,91.55
2023-02-07T06:03:03.716Z,92.22
2023-02-07T06:05:31.961Z,92.26
2023-02-07T06:07:59.393Z,92.01
2023-02-07T06:10:26.585Z,92.45
2023-02-07T06:12:53.547Z,92.73
2023-02-07T06:15:20.457Z,92.36
2023-02-07T06:17:48.210Z,92.09
2023-02-07T06:20:15.586Z,92.57
2023-02-07T06:22:42.516Z,92.46
2023-02-07T06:25:12.177Z,91.55
2023-02-07T06:27:41.328Z,91.63
2023-02-07T06:30:11.732Z,91.44
2023-02-07T06:32:39.201Z,91.61
2023-02-07T06:35:07.589Z,91.95
2023-02-07T06:37:35.013Z,91.28
2023-02-07T06:40:02.053Z,91.90
2023-02-07T06:42:30.105Z,91.59
2023-02-07T06:44:57.010Z,92.21
2023-02-07T06:47:24.354Z,91.35
2023-02-07T06:49:51.183Z,92.24
2023-02-07T06:52:18.496Z,92.43
2023-02-07T06:54:45.705Z,92.11
2023-02-07T06:57:12.634Z,92.67
2023-02-07T06:59:39.499Z,92.76
2023-02-07T07:02:06.906Z,92.62
2023-02-07T07:04:33.904Z,92.19
2023-02-07T07:07:01.045Z,90.86
2023-02-07T07:09:28.093Z,91.24
2023-02-07T07:11:55.014Z,91.35
2023-02-07T07:14:21.985Z,91.05
2023-02-07T07:16:48.969Z,91.43
2023-02-07T07:19:15.926Z,90.59
2023-02-07T07:21:43.352Z,90.70
2023-02-07T07:24:10.286Z,91.16
2023-02-07T07:26:48.972Z,90.99
2023-02-07T07:29:19.759Z,90.72
2023-02-07T07:31:47.208Z,90.92
2023-02-07T07:34:14.727Z,91.76
2023-02-07T07:36:41.872Z,90.74
2023-02-07T07:39:09.164Z,90.35
2023-02-07T07:41:36.433Z,91.07
2023-02-07T07:44:03.809Z,90.25
2023-02-07T07:46:30.768Z,90.05
2023-02-07T07:48:57.906Z,89.69
2023-02-07T07:51:24.910Z,89.86
2023-02-07T07:53:51.885Z,89.33
2023-02-07T07:56:18.780Z,89.85
2023-02-07T07:58:45.773Z,90.16
2023-02-07T08:01:12.671Z,90.17
2023-02-07T08:03:39.654Z,90.60
2023-02-07T08:06:07.206Z,91.98
2023-02-07T08:08:34.307Z,91.75
2023-02-07T08:11:04.017Z,92.00
2023-02-07T08:13:33.049Z,91.60
2023-02-07T08:16:01.235Z,91.50
2023-02-07T08:18:29.232Z,91.89
2023-02-07T08:20:56.679Z,91.74
2023-02-07T08:23:23.646Z,91.83
2023-02-07T08:25:50.616Z,91.68
2023-02-07T08:28:18.892Z,91.59
2023-02-07T08:30:47.658Z,90.88
2023-02-07T08:33:16.422Z,90.92
2023-02-07T08:35:43.849Z,90.33
2023-02-07T08:38:11.367Z,90.17
2023-02-07T08:40:38.870Z,89.50
2023-02-07T08:43:12.178Z,89.92
2023-02-07T08:45:41.076Z,89.61
2023-02-07T08:48:08.435Z,89.47
2023-02-07T08:50:35.661Z,89.52
2023-02-07T08:53:02.556Z,89.42
2023-02-07T08:55:30.608Z,89.39
2023-02-07T08:57:57.535Z,89.33
2023-02-07T09:00:24.637Z,88.71
2023-02-07T09:02:51.541Z,89.01
2023-02-07T09:05:18.524Z,89.17
2023-02-07T09:07:45.544Z,88.66
2023-02-07T09:10:12.510Z,88.15
2023-02-07T09:12:39.407Z,88.60
2023-02-07T09:15:06.823Z,89.11
2023-02-07T09:17:33.740Z,89.53
2023-02-07T09:20:00.759Z,88.53
2023-02-07T09:22:27.651Z,86.97
2023-02-07T09:24:54.524Z,87.27
2023-02-07T09:27:21.422Z,86.54
2023-02-07T09:29:48.521Z,85.99
2023-02-07T09:32:15.439Z,86.18
2023-02-07T09:34:42.498Z,86.05
2023-02-07T09:37:09.348Z,86.23
2023-02-07T09:39:38.865Z,85.32
2023-02-07T09:42:14.788Z,86.35
2023-02-07T09:45:01.709Z,86.18
2023-02-07T09:47:32.169Z,86.28
2023-02-07T09:50:03.966Z,85.32
2023-02-07T09:52:42.084Z,85.74
2023-02-07T09:55:22.096Z,85.31
2023-02-07T09:58:13.712Z,84.92
2023-02-07T10:00:43.395Z,84.38
2023-02-07T10:03:24.059Z,83.78
2023-02-07T10:06:12.579Z,84.32
2023-02-07T10:08:49.693Z,84.76
2023-02-07T10:11:45.613Z,83.63
2023-02-07T10:14:49.162Z,84.67
2023-02-07T10:17:31.383Z,84.51
2023-02-07T10:20:26.429Z,84.63
2023-02-07T10:23:05.048Z,84.67
2023-02-07T10:25:45.872Z,84.98
2023-02-07T10:28:15.539Z,84.58
2023-02-07T10:31:00.488Z,84.47
2023-02-07T10:33:38.219Z,83.85
2023-02-07T10:36:18.264Z,85.04
2023-02-07T10:39:14.394Z,85.25
2023-02-07T10:41:44.975Z,83.94
2023-02-07T10:44:17.598Z,84.00
2023-02-07T10:46:47.606Z,84.16
2023-02-07T10:49:25.326Z,83.95
2023-02-07T10:52:00.981Z,83.82
2023-02-07T10:54:27.921Z,84.06
2023-02-07T10:57:02.520Z,85.09
2023-02-07T10:59:49.091Z,85.14
2023-02-07T11:02:39.544Z,83.22
2023-02-07T11:05:15.647Z,82.16
2023-02-07T11:08:15.076Z,83.10
2023-02-07T11:10:45.569Z,81.30
2023-02-07T11:13:37.340Z,81.28
2023-02-07T11:16:08.609Z,81.52
2023-02-07T11:18:55.790Z,81.40
2023-02-07T11:21:35.247Z,80.95
2023-02-07T11:24:13.645Z,81.15
2023-02-07T11:27:04.890Z,80.56
2023-02-07T11:29:39.796Z,80.41
2023-02-07T11:32:06.840Z,81.00
2023-02-07T11:34:46.381Z,79.91
2023-02-07T11:37:27.233Z,80.98
2023-02-07T11:40:37.960Z,81.09
2023-02-07T11:43:18.010Z,81.17
2023-02-07T11:45:50.134Z,79.12
2023-02-07T11:48:40.281Z,78.89
2023-02-07T11:51:14.942Z,79.00
2023-02-07T11:54:00.735Z,78.74
2023-02-07T11:56:42.755Z,79.04
2023-02-07T11:59:22.845Z,79.93
2023-02-07T12:01:57.479Z,79.61
2023-02-07T12:04:36.825Z,78.96
2023-02-07T12:07:17.655Z,78.76
2023-02-07T12:09:55.930Z,78.75
2023-02-07T12:12:40.633Z,75.00
2023-02-07T12:15:21.007Z,76.14
2023-02-07T12:18:03.436Z,74.86
2023-02-07T12:20:34.539Z,75.22
2023-02-07T12:23:46.387Z,76.17
2023-02-07T12:26:31.508Z,75.54
2023-02-07T12:29:32.649Z,73.63
2023-02-07T12:32:27.467Z,72.10
2023-02-07T12:35:24.787Z,71.45
2023-02-07T12:38:25.138Z,70.11
2023-02-07T12:41:41.358Z,69.89
2023-02-07T12:44:22.075Z,67.99
2023-02-07T12:47:04.928Z,68.43
2023-02-07T12:49:53.529Z,67.67
2023-02-07T12:52:53.248Z,67.47
2023-02-07T12:55:54.146Z,68.94
2023-02-07T12:58:30.958Z,70.66
2023-02-07T13:01:36.268Z,69.41
2023-02-07T13:04:55.672Z,68.54
2023-02-07T13:07:41.188Z,70.77
2023-02-07T13:10:51.545Z,67.24
2023-02-07T13:13:36.154Z,66.48
2023-02-07T13:16:14.926Z,70.40
2023-02-07T13:19:20.937Z,69.62
2023-02-07T13:22:00.188Z,68.38
2023-02-07T13:24:29.928Z,68.84
2023-02-07T13:27:10.573Z,68.23
2023-02-07T13:29:39.351Z,70.36
2023-02-07T13:32:13.022Z,66.04
2023-02-07T13:35:24.819Z,68.78
2023-02-07T13:38:18.852Z,69.64
2023-02-07T13:41:17.634Z,69.09
2023-02-07T13:44:08.978Z,68.92
2023-02-07T13:47:07.287Z,66.59
2023-02-07T13:50:04.757Z,65.21
2023-02-07T13:53:13.961Z,66.27
2023-02-07T13:55:43.061Z,68.33
2023-02-07T13:58:53.240Z,67.54
2023-02-07T14:01:24.873Z,66.68
2023-02-07T14:04:06.918Z,67.38
2023-02-07T14:07:11.741Z,66.86
2023-02-07T14:09:47.498Z,65.24
2023-02-07T14:12:48.548Z,65.77
2023-02-07T14:15:42.768Z,65.25
2023-02-07T14:18:38.425Z,63.09
2023-02-07T14:21:21.423Z,62.73
2023-02-07T14:23:57.457Z,62.56
2023-02-07T14:26:59.167Z,63.05
2023-02-07T14:29:27.574Z,60.83
2023-02-07T14:32:17.187Z,61.87
2023-02-07T14:35:25.530Z,59.95
2023-02-07T14:38:02.885Z,59.66
2023-02-07T14:40:42.636Z,58.81
2023-02-07T14:43:12.733Z,61.40
2023-02-07T14:45:52.254Z,62.39
2023-02-07T14:49:33.912Z,61.67
2023-02-07T14:52:11.340Z,60.83
2023-02-07T14:54:54.238Z,61.06
2023-02-07T14:57:50.597Z,61.18
2023-02-07T15:00:17.777Z,63.48
2023-02-07T15:02:54.851Z,64.14
2023-02-07T15:05:33.989Z,63.83
2023-02-07T15:08:03.825Z,67.34
2023-02-07T15:10:38.381Z,65.69
2023-02-07T15:13:20.899Z,64.68
2023-02-07T15:16:03.267Z,65.46
2023-02-07T15:18:46.745Z,63.94
2023-02-07T15:21:35.572Z,65.80
2023-02-07T15:24:16.672Z,64.93
2023-02-07T15:26:50.790Z,65.01
2023-02-07T15:29:27.982Z,67.82
2023-02-07T15:31:55.094Z,66.50
2023-02-07T15:34:31.516Z,66.34
2023-02-07T15:37:11.679Z,67.00
2023-02-07T15:39:39.131Z,66.91
2023-02-07T15:42:06.541Z,68.42
2023-02-07T15:44:45.798Z,69.34
2023-02-07T15:47:32.088Z,69.88
2023-02-07T15:50:18.697Z,70.49
2023-02-07T15:52:52.785Z,71.88
2023-02-07T15:55:48.176Z,72.72
2023-02-07T15:58:24.856Z,72.94
2023-02-07T16:00:53.249Z,73.80
2023-02-07T16:03:29.829Z,75.82
2023-02-07T16:06:20.816Z,76.04
2023-02-07T16:08:50.653Z,76.31
2023-02-07T16:11:26.534Z,76.87
2023-02-07T16:13:59.402Z,76.92
2023-02-07T16:16:39.499Z,77.34
2023-02-07T16:19:15.168Z,77.46
2023-02-07T16:21:44.465Z,77.24
2023-02-07T16:24:18.132Z,78.10
2023-02-07T16:26:46.514Z,79.11
2023-02-07T16:29:21.253Z,79.58
2023-02-07T16:31:48.721Z,80.23
2023-02-07T16:34:18.345Z,80.32
2023-02-07T16:36:50.513Z,80.59
2023-02-07T16:39:17.557Z,81.75
2023-02-07T16:41:47.812Z,81.55
2023-02-07T16:44:23.046Z,81.09
2023-02-07T16:46:50.838Z,81.67
2023-02-07T16:49:22.061Z,81.94
2023-02-07T16:51:49.608Z,80.43
2023-02-07T16:54:17.059Z,80.36
2023-02-07T16:56:46.241Z,81.03
2023-02-07T16:59:17.468Z,81.07
2023-02-07T17:01:45.615Z,82.02
2023-02-07T17:04:12.935Z,82.80
2023-02-07T17:06:42.270Z,82.42
2023-02-07T17:09:24.652Z,82.67
2023-02-07T17:11:53.294Z,83.13
2023-02-07T17:14:20.693Z,83.29
2023-02-07T17:16:48.229Z,83.23
2023-02-07T17:19:26.398Z,83.30
2023-02-07T17:21:54.008Z,83.45
2023-02-07T17:24:20.852Z,83.18
2023-02-07T17:26:52.291Z,82.84
2023-02-07T17:29:20.087Z,82.96
2023-02-07T17:31:47.278Z,82.72
2023-02-07T17:34:14.234Z,82.95
2023-02-07T17:36:47.281Z,81.56
2023-02-07T17:39:16.398Z,81.92
2023-02-07T17:41:43.566Z,82.33
2023-02-07T17:44:10.564Z,82.50
2023-02-07T17:46:37.453Z,82.56
2023-02-07T17:49:04.607Z,82.72
2023-02-07T17:51:31.551Z,82.26
2023-02-07T17:53:58.555Z,82.28
2023-02-07T17:56:33.130Z,82.92
2023-02-07T17:59:04.405Z,82.48
2023-02-07T18:01:32.821Z,82.77
2023-02-07T18:03:59.924Z,82.50
2023-02-07T18:06:29.767Z,82.61
2023-02-07T18:08:58.605Z,82.29
2023-02-07T18:11:27.263Z,82.23
2023-02-07T18:13:54.565Z,82.73
2023-02-07T18:16:24.920Z,83.21
2023-02-07T18:18:54.465Z,81.94
2023-02-07T18:21:21.449Z,82.55
2023-02-07T18:23:48.503Z,81.29
2023-02-07T18:26:16.833Z,81.49
2023-02-07T18:28:44.209Z,81.76
2023-02-07T18:31:17.928Z,81.25
2023-02-07T18:33:45.797Z,81.66
2023-02-07T18:36:13.586Z,81.56
2023-02-07T18:38:40.764Z,81.86
2023-02-07T18:41:17.563Z,82.68
2023-02-07T18:43:44.517Z,82.62
2023-02-07T18:46:16.593Z,82.56
2023-02-07T18:48:51.368Z,83.76
2023-02-07T18:51:19.591Z,83.29
2023-02-07T18:53:47.566Z,84.21
2023-02-07T18:56:22.158Z,84.19
2023-02-07T18:58:52.932Z,84.60
2023-02-07T19:01:20.958Z,84.84
2023-02-07T19:03:58.466Z,84.19
2023-02-07T19:06:30.695Z,84.41
2023-02-07T19:08:57.714Z,84.31
2023-02-07T19:11:26.508Z,85.06
2023-02-07T19:13:55.040Z,84.62
2023-02-07T19:16:24.187Z,84.13
2023-02-07T19:18:51.424Z,84.08
2023-02-07T19:21:26.664Z,83.11
2023-02-07T19:23:56.368Z,83.90
2023-02-07T19:26:24.444Z,84.22
2023-02-07T19:28:52.859Z,84.57
2023-02-07T19:31:21.322Z,83.74
2023-02-07T19:33:49.728Z,84.45
2023-02-07T19:36:18.494Z,85.79
2023-02-07T19:38:48.491Z,86.19
2023-02-07T19:41:18.257Z,85.76
2023-02-07T19:43:46.054Z,85.47
2023-02-07T19:46:13.121Z,85.76
2023-02-07T19:48:40.121Z,85.17
2023-02-07T19:51:17.852Z,85.44
2023-02-07T19:53:46.404Z,85.49
2023-02-07T19:56:14.319Z,85.73
2023-02-07T19:58:46.565Z,85.58
2023-02-07T20:01:14.812Z,85.62
2023-02-07T20:03:43.799Z,85.39
2023-02-07T20:06:14.227Z,85.88
2023-02-07T20:08:41.587Z,86.21
2023-02-07T20:11:12.159Z,86.48
2023-02-07T20:13:42.025Z,86.24
2023-02-07T20:16:14.753Z,85.89
2023-02-07T20:18:42.612Z,85.91
2023-02-07T20:21:14.719Z,86.13
2023-02-07T20:23:44.191Z,86.04
2023-02-07T20:26:19.969Z,85.87
2023-02-07T20:28:47.097Z,86.99
2023-02-07T20:31:18.082Z,87.99
2023-02-07T20:33:45.613Z,86.83
2023-02-07T20:36:16.054Z,86.73
2023-02-07T20:38:45.834Z,86.48
2023-02-07T20:41:29.283Z,86.71
2023-02-07T20:44:05.376Z,85.05
2023-02-07T20:46:36.318Z,85.76
2023-02-07T20:49:12.027Z,85.87
2023-02-07T20:51:39.599Z,85.03
2023-02-07T20:54:07.291Z,85.07
2023-02-07T20:56:34.844Z,86.00
2023-02-07T20:59:03.250Z,85.15
2023-02-07T21:01:32.927Z,84.72
2023-02-07T21:04:01.797Z,86.04
2023-02-07T21:06:29.841Z,86.92
2023-02-07T21:09:00.628Z,87.23
2023-02-07T21:11:34.524Z,87.89
2023-02-07T21:14:03.265Z,88.20
2023-02-07T21:16:33.535Z,88.88
2023-02-07T21:19:01.091Z,89.04
2023-02-07T21:21:29.092Z,88.07
2023-02-07T21:23:57.138Z,87.56
2023-02-07T21:26:26.617Z,87.58
2023-02-07T21:29:01.623Z,88.55
2023-02-07T21:31:30.647Z,87.50
2023-02-07T21:33:58.128Z,88.10
2023-02-07T21:36:31.841Z,88.31
2023-02-07T21:39:04.280Z,88.36
2023-02-07T21:41:31.543Z,88.33
2023-02-07T21:43:59.487Z,88.28
2023-02-07T21:46:31.371Z,88.72
2023-02-07T21:49:01.879Z,88.12
2023-02-07T21:51:31.423Z,88.80
2023-02-07T21:53:59.962Z,89.23
2023-02-07T21:56:30.719Z,89.25
2023-02-07T21:59:14.780Z,88.80
2023-02-07T22:01:42.899Z,88.97
2023-02-07T22:04:10.957Z,88.81
2023-02-07T22:06:42.217Z,89.09
2023-02-07T22:09:13.354Z,88.81
2023-02-07T22:11:41.252Z,88.18
2023-02-07T22:14:08.576Z,88.55
2023-02-07T22:16:35.695Z,88.86
2023-02-07T22:19:05.255Z,89.59
2023-02-07T22:21:36.049Z,89.76
2023-02-07T22:24:05.451Z,89.07
2023-02-07T22:26:33.700Z,89.08
2023-02-07T22:29:05.618Z,89.20
2023-02-07T22:31:36.762Z,88.94
2023-02-07T22:34:11.830Z,89.13
2023-02-07T22:36:45.653Z,88.77
2023-02-07T22:39:17.895Z,88.39
2023-02-07T22:41:46.197Z,88.29
2023-02-07T22:44:15.168Z,88.46
2023-02-07T22:46:43.673Z,87.84
2023-02-07T22:49:11.342Z,88.22
2023-02-07T22:51:38.856Z,88.20
2023-02-07T22:54:12.559Z,88.49
2023-02-07T22:56:39.432Z,88.61
2023-02-07T22:59:07.194Z,88.73
2023-02-07T23:01:39.132Z,88.30
2023-02-07T23:04:11.706Z,88.01
2023-02-07T23:06:38.911Z,87.86
2023-02-07T23:09:05.826Z,87.17
2023-02-07T23:11:33.548Z,87.57
2023-02-07T23:14:00.704Z,88.33
2023-02-07T23:16:29.948Z,87.44
2023-02-07T23:19:03.793Z,87.28
2023-02-07T23:21:30.856Z,88.40
2023-02-07T23:23:58.603Z,87.86
2023-02-07T23:26:26.987Z,88.24
2023-02-07T23:28:54.056Z,87.91
2023-02-07T23:31:24.033Z,87.76
2023-02-07T23:33:52.655Z,87.37
2023-02-07T23:36:20.061Z,87.74
2023-02-07T23:38:48.227Z,87.72
2023-02-07T23:41:16.151Z,88.42
2023-02-07T23:43:43.155Z,88.20
2023-02-07T23:46:10.497Z,88.50
2023-02-07T23:48:38.832Z,88.52
2023-02-07T23:51:06.638Z,88.21
2023-02-07T23:53:34.597Z,87.62
2023-02-07T23:56:03.162Z,87.54
2023-02-07T23:58:30.335Z,87.28
